Time;durP1;ratioP1;P1;durP2;ratioP2;P2;SDS_P1;SDS_P2;PMS_P1;PMS_P2;Temp;Humidity;BMP_temperature;BMP_pressure;BME280_temperature;BME280_humidity;BME280_pressure;Samples;Min_cycle;Max_cycle;Signal;HPM_P1;HPM_P2
2021/12/01 00:00:19;;;;;;;65.07;22.63;;;8.90;99.90;;;;;;5068382;28;20119;-82
2021/12/01 00:02:52;;;;;;;68.93;24.20;;;8.90;99.90;;;;;;5090033;28;20040;-81
2021/12/01 00:05:18;;;;;;;57.65;23.70;;;8.90;99.90;;;;;;5074448;28;20043;-81
2021/12/01 00:07:43;;;;;;;65.53;25.45;;;8.90;99.90;;;;;;5074185;28;20726;-82
2021/12/01 00:10:09;;;;;;;70.55;27.35;;;9.00;99.90;;;;;;5093008;28;20035;-82
2021/12/01 00:12:35;;;;;;;72.78;27.52;;;9.00;99.90;;;;;;5091557;28;20123;-81
2021/12/01 00:15:00;;;;;;;72.53;27.05;;;9.00;99.90;;;;;;5075677;28;20040;-81
2021/12/01 00:17:26;;;;;;;69.47;27.40;;;9.10;99.90;;;;;;5100307;28;20036;-81
2021/12/01 00:19:53;;;;;;;77.03;28.48;;;9.00;99.90;;;;;;5100941;28;20032;-81
2021/12/01 00:22:19;;;;;;;76.30;26.85;;;9.10;99.90;;;;;;5081726;28;20039;-82
2021/12/01 00:24:45;;;;;;;71.15;28.40;;;9.10;99.90;;;;;;5095975;28;20176;-81
2021/12/01 00:27:11;;;;;;;67.63;27.85;;;9.10;99.90;;;;;;5090393;28;20040;-82
2021/12/01 00:29:38;;;;;;;66.00;26.73;;;9.10;99.90;;;;;;5088603;28;20055;-81
2021/12/01 00:32:04;;;;;;;58.20;27.17;;;9.10;99.90;;;;;;5094600;28;20085;-82
2021/12/01 00:34:32;;;;;;;68.20;28.38;;;9.20;99.90;;;;;;5096051;28;20530;-81
2021/12/01 00:36:57;;;;;;;70.35;27.65;;;9.10;99.90;;;;;;5092015;28;20434;-81
2021/12/01 00:39:23;;;;;;;61.17;26.25;;;9.20;99.90;;;;;;5095805;28;20040;-81
2021/12/01 00:41:50;;;;;;;63.40;26.90;;;9.20;99.90;;;;;;5083100;28;20107;-82
2021/12/01 00:44:15;;;;;;;63.45;25.83;;;9.20;99.90;;;;;;5072096;28;20040;-82
2021/12/01 00:46:45;;;;;;;61.17;25.92;;;9.20;99.90;;;;;;5097096;28;20032;-82
2021/12/01 00:49:11;;;;;;;56.38;25.98;;;9.20;99.90;;;;;;5098826;28;20573;-82
2021/12/01 00:51:37;;;;;;;59.00;26.30;;;9.20;99.90;;;;;;5079099;28;20068;-82
2021/12/01 00:54:02;;;;;;;47.03;24.33;;;9.30;99.90;;;;;;5097212;28;20039;-81
2021/12/01 00:56:28;;;;;;;52.83;25.20;;;9.30;99.90;;;;;;5081230;28;20047;-82
2021/12/01 00:58:54;;;;;;;55.42;24.70;;;9.20;99.90;;;;;;5092965;28;20035;-81
2021/12/01 01:01:19;;;;;;;52.58;24.50;;;9.30;99.90;;;;;;5096642;28;20032;-82
2021/12/01 01:03:45;;;;;;;49.40;24.35;;;9.30;99.90;;;;;;5090913;28;20517;-82
2021/12/01 01:06:11;;;;;;;52.53;24.15;;;9.30;99.90;;;;;;5090359;28;20118;-82
2021/12/01 01:08:36;;;;;;;57.65;24.98;;;9.30;99.90;;;;;;5093882;28;20031;-82
2021/12/01 01:16:22;;;;;;;49.78;24.25;;;9.30;99.90;;;;;;5092708;28;20089;-82
2021/12/01 01:18:50;;;;;;;57.13;23.48;;;9.30;99.90;;;;;;5095933;28;20145;-81
2021/12/01 01:21:17;;;;;;;55.50;22.92;;;9.30;99.90;;;;;;5093199;28;20047;-81
2021/12/01 01:23:44;;;;;;;42.17;22.63;;;9.30;99.90;;;;;;5095004;28;20416;-81
2021/12/01 01:26:13;;;;;;;43.95;21.67;;;9.30;99.90;;;;;;5084725;28;20412;-81
2021/12/01 01:28:39;;;;;;;50.55;21.65;;;9.30;99.90;;;;;;5089515;28;20032;-82
2021/12/01 01:31:05;;;;;;;48.78;22.13;;;9.30;99.90;;;;;;5093161;28;20036;-82
2021/12/01 01:33:30;;;;;;;47.88;21.85;;;9.40;99.90;;;;;;5081534;28;20040;-81
2021/12/01 01:35:56;;;;;;;44.13;20.50;;;9.40;99.90;;;;;;5079146;28;20047;-82
2021/12/01 01:38:22;;;;;;;45.72;19.70;;;9.40;99.90;;;;;;5079998;28;20050;-82
2021/12/01 01:40:48;;;;;;;42.63;19.25;;;9.30;99.90;;;;;;5087702;28;20488;-82
2021/12/01 01:43:14;;;;;;;40.05;18.58;;;9.40;99.90;;;;;;5078942;28;20044;-82
2021/12/01 01:45:40;;;;;;;38.50;17.35;;;9.30;99.90;;;;;;5101354;28;20613;-81
2021/12/01 01:48:11;;;;;;;42.25;18.20;;;9.40;99.90;;;;;;5084679;28;20126;-82
2021/12/01 01:50:39;;;;;;;41.92;16.95;;;9.30;99.90;;;;;;5093763;28;20409;-81
2021/12/01 01:53:07;;;;;;;33.58;16.77;;;9.40;99.90;;;;;;5092363;28;20096;-81
2021/12/01 01:55:34;;;;;;;35.58;16.02;;;9.30;99.90;;;;;;5086763;28;20047;-81
2021/12/01 01:58:00;;;;;;;33.00;15.50;;;9.30;99.90;;;;;;5096998;28;20036;-82
2021/12/01 02:00:27;;;;;;;36.25;16.15;;;9.40;99.90;;;;;;5085861;28;20160;-82
2021/12/01 02:02:55;;;;;;;35.35;14.63;;;9.40;99.90;;;;;;5100163;28;20048;-82
2021/12/01 02:05:22;;;;;;;32.47;13.90;;;9.40;99.90;;;;;;5094734;28;20060;-81
2021/12/01 02:07:48;;;;;;;28.00;13.45;;;9.30;99.90;;;;;;5074429;28;20512;-81
2021/12/01 02:10:15;;;;;;;34.03;13.80;;;9.40;99.90;;;;;;5074508;28;20272;-81
2021/12/01 02:12:41;;;;;;;30.85;12.27;;;9.40;99.90;;;;;;5092304;28;20051;-81
2021/12/01 02:15:08;;;;;;;29.13;11.82;;;9.40;99.90;;;;;;5091040;28;20043;-81
2021/12/01 02:17:34;;;;;;;30.58;11.57;;;9.40;99.90;;;;;;5075498;28;20054;-81
2021/12/01 02:20:00;;;;;;;26.33;10.80;;;9.40;99.90;;;;;;5092594;28;20123;-81
2021/12/01 02:22:26;;;;;;;25.40;10.38;;;9.40;99.90;;;;;;5093742;28;20119;-81
2021/12/01 02:24:51;;;;;;;24.92;10.07;;;9.40;99.90;;;;;;5086625;28;20067;-81
2021/12/01 02:27:17;;;;;;;25.17;10.45;;;9.40;99.90;;;;;;5100485;28;20131;-81
2021/12/01 02:29:42;;;;;;;21.50;9.15;;;9.50;99.90;;;;;;5086664;28;20131;-81
2021/12/01 02:32:08;;;;;;;22.30;9.23;;;9.50;99.90;;;;;;5076472;28;20077;-81
2021/12/01 02:34:35;;;;;;;20.38;9.00;;;9.50;99.90;;;;;;5080521;28;20074;-81
2021/12/01 02:37:01;;;;;;;14.75;7.30;;;9.50;99.90;;;;;;5092418;28;20036;-81
2021/12/01 02:39:28;;;;;;;17.30;7.68;;;9.50;99.90;;;;;;5078569;28;20078;-81
2021/12/01 02:41:57;;;;;;;17.45;7.80;;;9.50;99.90;;;;;;5089251;28;20035;-81
2021/12/01 02:44:24;;;;;;;11.30;6.53;;;9.60;99.90;;;;;;5086266;28;20164;-81
2021/12/01 02:46:50;;;;;;;13.30;6.43;;;9.60;99.90;;;;;;5087063;28;20043;-81
2021/12/01 02:49:21;;;;;;;15.05;7.40;;;9.60;99.90;;;;;;5081043;28;20039;-81
2021/12/01 02:51:49;;;;;;;16.13;7.88;;;9.60;99.90;;;;;;5095073;28;20086;-81
2021/12/01 02:54:14;;;;;;;14.95;7.63;;;9.60;99.90;;;;;;5071082;28;20055;-81
2021/12/01 02:56:46;;;;;;;13.25;6.88;;;9.60;99.90;;;;;;5086388;28;20024;-81
2021/12/01 02:59:12;;;;;;;12.20;6.18;;;9.70;99.90;;;;;;5091499;28;20032;-81
2021/12/01 03:01:37;;;;;;;12.98;6.57;;;9.70;99.90;;;;;;5083755;28;20055;-81
2021/12/01 03:04:04;;;;;;;12.02;6.32;;;9.70;99.90;;;;;;5087015;28;20036;-81
2021/12/01 03:06:30;;;;;;;13.10;6.00;;;9.70;99.90;;;;;;5092193;28;20241;-81
2021/12/01 03:08:57;;;;;;;11.38;5.53;;;9.70;99.90;;;;;;5076283;28;20400;-81
2021/12/01 03:11:24;;;;;;;12.38;5.40;;;9.70;99.90;;;;;;5093109;28;20053;-81
2021/12/01 03:13:49;;;;;;;11.15;5.85;;;9.70;99.90;;;;;;5075227;28;20050;-81
2021/12/01 03:16:15;;;;;;;9.88;5.57;;;9.70;99.90;;;;;;5094201;28;20404;-81
2021/12/01 03:18:44;;;;;;;10.45;4.97;;;9.70;99.90;;;;;;5090692;28;20028;-81
2021/12/01 03:21:11;;;;;;;10.57;4.90;;;9.70;99.90;;;;;;5093058;28;20035;-81
2021/12/01 03:23:36;;;;;;;11.13;4.95;;;9.70;99.90;;;;;;5075234;28;20511;-81
2021/12/01 03:26:02;;;;;;;11.18;4.68;;;9.70;99.90;;;;;;5088817;28;20045;-81
2021/12/01 03:28:28;;;;;;;11.02;4.22;;;9.70;99.90;;;;;;5093284;28;20115;-81
2021/12/01 03:30:54;;;;;;;8.15;3.97;;;9.70;99.90;;;;;;5076466;28;20075;-81
2021/12/01 03:33:22;;;;;;;10.27;4.35;;;9.70;99.90;;;;;;5094149;28;20404;-80
2021/12/01 03:35:50;;;;;;;11.32;3.80;;;9.70;99.90;;;;;;5088586;28;20409;-81
2021/12/01 03:38:17;;;;;;;12.43;3.30;;;9.60;99.90;;;;;;5072371;28;20508;-80
2021/12/01 03:40:43;;;;;;;11.32;3.60;;;9.70;99.90;;;;;;5077601;28;20409;-80
2021/12/01 03:43:09;;;;;;;13.40;3.92;;;9.70;99.90;;;;;;5095952;28;20083;-81
2021/12/01 03:45:35;;;;;;;20.70;5.40;;;9.60;99.90;;;;;;5093806;28;20044;-81
2021/12/01 03:48:01;;;;;;;9.65;3.30;;;9.60;99.90;;;;;;5092207;28;20502;-81
2021/12/01 03:50:27;;;;;;;13.05;3.63;;;9.60;99.90;;;;;;5092513;28;20075;-81
2021/12/01 03:52:53;;;;;;;12.95;3.03;;;9.60;99.90;;;;;;5066803;28;20404;-81
2021/12/01 03:55:18;;;;;;;9.57;3.80;;;9.60;99.90;;;;;;5080631;28;21491;-81
2021/12/01 03:57:44;;;;;;;9.95;3.30;;;9.60;99.90;;;;;;5078825;28;20043;-81
2021/12/01 04:00:13;;;;;;;11.52;3.78;;;9.60;99.90;;;;;;5099478;28;20032;-81
2021/12/01 04:02:39;;;;;;;8.90;4.00;;;9.60;99.90;;;;;;5101871;28;20053;-81
2021/12/01 04:05:05;;;;;;;11.07;4.53;;;9.60;99.90;;;;;;5076876;28;20035;-81
2021/12/01 04:07:31;;;;;;;12.75;4.20;;;9.60;99.90;;;;;;5090172;28;20042;-81
2021/12/01 04:09:57;;;;;;;8.63;4.05;;;9.50;99.90;;;;;;5079600;28;20070;-81
2021/12/01 04:12:22;;;;;;;10.00;4.55;;;9.60;99.90;;;;;;5084939;28;20043;-81
2021/12/01 04:14:48;;;;;;;10.23;4.72;;;9.60;99.90;;;;;;5096990;28;20505;-81
2021/12/01 04:17:14;;;;;;;12.70;4.97;;;9.60;99.90;;;;;;5079864;28;20042;-81
2021/12/01 04:19:39;;;;;;;8.80;3.92;;;9.50;99.90;;;;;;5093689;28;20444;-81
2021/12/01 04:22:05;;;;;;;9.52;3.70;;;9.60;99.90;;;;;;5076968;28;20525;-81
2021/12/01 04:24:31;;;;;;;6.60;3.50;;;9.50;99.90;;;;;;5072655;28;20537;-81
2021/12/01 04:26:57;;;;;;;10.32;3.50;;;9.60;99.90;;;;;;5078885;28;20047;-81
2021/12/01 04:29:27;;;;;;;9.20;3.42;;;9.50;99.90;;;;;;5080705;28;20109;-81
2021/12/01 04:31:53;;;;;;;7.85;3.40;;;9.50;99.90;;;;;;5098974;28;20038;-81
2021/12/01 04:34:20;;;;;;;9.77;3.60;;;9.60;99.90;;;;;;5095042;28;20047;-80
2021/12/01 04:36:48;;;;;;;7.45;3.60;;;9.50;99.90;;;;;;5097473;28;20381;-81
2021/12/01 04:39:15;;;;;;;9.23;3.53;;;9.50;99.90;;;;;;5087984;28;20042;-81
2021/12/01 04:41:50;;;;;;;7.68;3.80;;;9.50;99.90;;;;;;5081958;28;20382;-81
2021/12/01 04:44:16;;;;;;;6.30;3.47;;;9.50;99.90;;;;;;5080976;28;20044;-81
2021/12/01 04:46:48;;;;;;;4.85;3.10;;;9.50;99.90;;;;;;5099072;28;20048;-81
2021/12/01 04:49:17;;;;;;;6.80;3.40;;;9.50;99.90;;;;;;5098443;28;20473;-81
2021/12/01 04:51:45;;;;;;;7.25;3.40;;;9.50;99.90;;;;;;5077332;28;20039;-81
2021/12/01 04:54:11;;;;;;;6.45;3.38;;;9.50;99.90;;;;;;5096255;28;20039;-81
2021/12/01 04:56:37;;;;;;;7.40;3.28;;;9.50;99.90;;;;;;5100993;28;20056;-80
2021/12/01 04:59:04;;;;;;;7.18;2.92;;;9.50;99.90;;;;;;5083473;28;20035;-81
2021/12/01 05:01:32;;;;;;;7.85;3.70;;;9.50;99.90;;;;;;5083608;28;20425;-80
2021/12/01 05:03:58;;;;;;;7.50;3.58;;;9.50;99.90;;;;;;5095991;28;20032;-81
2021/12/01 05:06:23;;;;;;;7.35;3.58;;;9.50;99.90;;;;;;5080467;28;20442;-81
2021/12/01 05:08:49;;;;;;;5.80;3.03;;;9.50;99.90;;;;;;5095787;28;20032;-80
2021/12/01 05:11:15;;;;;;;6.30;3.50;;;9.50;99.90;;;;;;5081700;28;20032;-81
2021/12/01 05:13:41;;;;;;;8.18;3.88;;;9.40;99.90;;;;;;5091000;28;20385;-81
2021/12/01 05:16:07;;;;;;;6.68;3.75;;;9.50;99.90;;;;;;5091229;28;20032;-81
2021/12/01 05:18:33;;;;;;;7.55;4.00;;;9.40;99.90;;;;;;5080260;28;20036;-81
2021/12/01 05:20:58;;;;;;;7.57;4.05;;;9.40;99.90;;;;;;5094198;28;20035;-81
2021/12/01 05:23:24;;;;;;;6.65;4.03;;;9.40;99.90;;;;;;5092445;28;20101;-81
2021/12/01 05:25:50;;;;;;;7.25;3.72;;;9.40;99.90;;;;;;5075845;28;20059;-81
2021/12/01 05:28:16;;;;;;;6.63;3.78;;;9.40;99.90;;;;;;5095686;28;20480;-81
2021/12/01 05:30:42;;;;;;;5.53;3.55;;;9.40;99.90;;;;;;5098738;28;20072;-81
2021/12/01 05:33:09;;;;;;;6.47;3.90;;;9.40;99.90;;;;;;5102213;28;20471;-81
2021/12/01 05:35:36;;;;;;;7.40;4.05;;;9.30;99.90;;;;;;5082102;28;20044;-81
2021/12/01 05:38:05;;;;;;;7.70;4.50;;;9.30;99.90;;;;;;5088696;28;20105;-81
2021/12/01 05:40:32;;;;;;;7.82;4.78;;;9.30;99.90;;;;;;5099224;28;20031;-81
2021/12/01 05:42:57;;;;;;;8.73;4.88;;;9.30;99.90;;;;;;5091838;28;20040;-81
2021/12/01 05:45:23;;;;;;;7.78;4.50;;;9.30;99.90;;;;;;5085306;28;20055;-81
2021/12/01 05:47:49;;;;;;;10.68;5.30;;;9.30;99.90;;;;;;5066657;28;20070;-81
2021/12/01 05:50:15;;;;;;;8.20;5.00;;;9.30;99.90;;;;;;5096965;28;20082;-81
2021/12/01 05:52:42;;;;;;;7.40;4.88;;;9.20;99.90;;;;;;5081607;28;20051;-81
2021/12/01 05:55:08;;;;;;;8.63;4.57;;;9.20;99.90;;;;;;5071590;28;20036;-80
2021/12/01 05:57:34;;;;;;;9.23;4.88;;;9.20;99.90;;;;;;5091497;28;20063;-81
2021/12/01 06:00:00;;;;;;;9.05;5.38;;;9.20;99.90;;;;;;5093969;28;20032;-81
2021/12/01 06:02:27;;;;;;;8.63;4.80;;;9.20;99.90;;;;;;5084618;28;20076;-80
2021/12/01 06:04:53;;;;;;;8.10;4.47;;;9.20;99.90;;;;;;5078737;28;20031;-81
2021/12/01 06:07:19;;;;;;;7.05;4.15;;;9.10;99.90;;;;;;5074811;28;20484;-80
2021/12/01 06:09:44;;;;;;;6.60;3.95;;;9.20;99.90;;;;;;5063067;28;20044;-81
2021/12/01 06:12:13;;;;;;;6.55;3.72;;;9.10;99.90;;;;;;5095007;28;20051;-81
2021/12/01 06:14:43;;;;;;;4.78;3.00;;;9.10;99.90;;;;;;5073322;28;20051;-80
2021/12/01 06:17:12;;;;;;;4.93;2.72;;;9.10;99.90;;;;;;5086911;28;20100;-80
2021/12/01 06:19:39;;;;;;;5.63;2.88;;;9.00;99.90;;;;;;5096266;28;20036;-81
2021/12/01 06:22:04;;;;;;;5.82;2.80;;;9.00;99.90;;;;;;5072300;28;20035;-81
2021/12/01 06:24:30;;;;;;;5.18;2.78;;;9.00;99.90;;;;;;5094324;28;20028;-80
2021/12/01 06:26:56;;;;;;;5.55;2.30;;;9.00;99.90;;;;;;5096717;28;20027;-81
2021/12/01 06:29:22;;;;;;;4.10;2.53;;;9.00;99.90;;;;;;5079617;28;20039;-80
2021/12/01 06:31:48;;;;;;;6.00;2.78;;;9.00;99.90;;;;;;5091320;28;20067;-80
2021/12/01 06:34:13;;;;;;;4.93;2.55;;;9.00;99.90;;;;;;5088955;28;20097;-80
2021/12/01 06:36:39;;;;;;;4.43;2.40;;;9.00;99.90;;;;;;5074039;28;20082;-80
2021/12/01 06:39:06;;;;;;;4.57;2.85;;;9.00;99.90;;;;;;5075082;28;20032;-80
2021/12/01 06:41:33;;;;;;;4.30;2.50;;;8.90;99.90;;;;;;5089790;28;20024;-81
2021/12/01 06:43:59;;;;;;;4.47;2.60;;;8.90;99.90;;;;;;5094269;28;20036;-80
2021/12/01 06:46:25;;;;;;;4.90;2.75;;;9.00;99.90;;;;;;5080359;28;20032;-80
2021/12/01 06:48:51;;;;;;;5.53;2.95;;;8.90;99.90;;;;;;5096882;28;20455;-80
2021/12/01 06:51:17;;;;;;;5.28;2.83;;;8.90;99.90;;;;;;5096421;28;20376;-80
2021/12/01 06:53:42;;;;;;;4.57;2.80;;;8.90;99.90;;;;;;5092127;28;20039;-79
2021/12/01 06:56:09;;;;;;;4.95;3.10;;;8.90;99.90;;;;;;5077583;28;20028;-80
2021/12/01 06:58:35;;;;;;;5.10;3.15;;;8.90;99.90;;;;;;5095356;28;20119;-79
2021/12/01 07:01:04;;;;;;;5.38;3.22;;;8.90;99.90;;;;;;5080284;28;20119;-79
2021/12/01 07:03:30;;;;;;;5.95;3.10;;;8.90;99.90;;;;;;5082781;28;20035;-79
2021/12/01 07:05:56;;;;;;;6.13;3.28;;;8.80;99.90;;;;;;5076291;28;20043;-79
2021/12/01 07:08:21;;;;;;;4.68;3.20;;;8.90;99.90;;;;;;5066289;28;20089;-79
2021/12/01 07:10:47;;;;;;;4.32;2.70;;;8.80;99.90;;;;;;5081280;28;20468;-79
2021/12/01 07:13:13;;;;;;;4.30;2.85;;;8.90;99.90;;;;;;5078444;28;20048;-78
2021/12/01 07:15:38;;;;;;;5.40;3.22;;;8.80;99.90;;;;;;5071497;28;20332;-79
2021/12/01 07:18:07;;;;;;;5.15;2.97;;;8.80;99.90;;;;;;5064007;28;20043;-79
2021/12/01 07:20:33;;;;;;;5.07;3.35;;;8.80;99.90;;;;;;5058687;28;20078;-78
2021/12/01 07:22:59;;;;;;;6.22;3.70;;;8.80;99.90;;;;;;5071506;28;20036;-80
2021/12/01 07:25:25;;;;;;;4.70;2.88;;;8.80;99.90;;;;;;5075225;28;20047;-80
2021/12/01 07:27:50;;;;;;;4.53;2.72;;;8.80;99.90;;;;;;5080340;28;20424;-79
2021/12/01 07:30:16;;;;;;;4.85;2.97;;;8.80;99.90;;;;;;5074658;28;20051;-79
2021/12/01 07:32:41;;;;;;;5.10;3.15;;;8.80;99.90;;;;;;5055698;28;20452;-79
2021/12/01 07:35:08;;;;;;;5.22;3.58;;;8.80;99.90;;;;;;5075921;28;20048;-79
2021/12/01 07:37:35;;;;;;;5.43;3.50;;;8.80;99.90;;;;;;5079521;28;20046;-79
2021/12/01 07:40:00;;;;;;;6.18;3.75;;;8.80;99.90;;;;;;5068671;28;20499;-79
2021/12/01 07:42:26;;;;;;;8.90;4.03;;;8.80;99.90;;;;;;5086358;28;20563;-80
2021/12/01 07:44:52;;;;;;;13.35;4.85;;;8.80;99.90;;;;;;5078135;28;20035;-80
2021/12/01 07:47:17;;;;;;;7.45;4.07;;;8.80;99.90;;;;;;5088055;28;20036;-79
2021/12/01 07:49:43;;;;;;;6.60;4.22;;;8.80;99.90;;;;;;5085709;28;20046;-80
2021/12/01 07:52:09;;;;;;;5.65;4.05;;;8.80;99.90;;;;;;5065440;28;20067;-80
2021/12/01 07:54:35;;;;;;;6.43;4.25;;;8.80;99.90;;;;;;5070949;28;20036;-80
2021/12/01 07:57:02;;;;;;;6.65;4.03;;;8.80;99.90;;;;;;5067820;28;20040;-80
2021/12/01 07:59:28;;;;;;;6.80;4.28;;;8.80;99.90;;;;;;5061567;28;20097;-79
2021/12/01 08:01:54;;;;;;;6.07;3.78;;;8.80;99.90;;;;;;5073280;28;20377;-79
2021/12/01 08:04:20;;;;;;;9.75;4.85;;;8.80;99.90;;;;;;5055167;28;20047;-80
2021/12/01 08:06:46;;;;;;;7.80;4.70;;;8.80;99.90;;;;;;5056227;28;20406;-80
2021/12/01 08:09:12;;;;;;;8.30;4.40;;;8.80;99.90;;;;;;5072022;28;20032;-80
2021/12/01 08:11:38;;;;;;;6.97;4.78;;;8.80;99.90;;;;;;5069310;28;20123;-81
2021/12/01 08:14:07;;;;;;;6.80;4.13;;;8.80;99.90;;;;;;5081277;28;20035;-81
2021/12/01 08:16:35;;;;;;;7.15;4.75;;;8.80;99.90;;;;;;5071958;28;20027;-80
2021/12/01 08:19:00;;;;;;;9.27;4.38;;;8.90;99.90;;;;;;5081487;28;20044;-80
2021/12/01 08:21:26;;;;;;;7.28;3.92;;;8.90;99.90;;;;;;5084662;28;20028;-80
2021/12/01 08:23:52;;;;;;;6.70;4.10;;;8.80;99.90;;;;;;5064192;28;20492;-80
2021/12/01 08:26:19;;;;;;;7.82;4.03;;;8.90;99.90;;;;;;5062938;28;20036;-79
2021/12/01 08:28:45;;;;;;;7.22;4.20;;;8.90;99.90;;;;;;5074217;28;20052;-80
2021/12/01 08:31:16;;;;;;;7.38;3.92;;;8.90;99.90;;;;;;5077662;28;20430;-80
2021/12/01 08:33:43;;;;;;;8.25;4.00;;;8.90;99.90;;;;;;5078909;28;20040;-80
2021/12/01 08:36:12;;;;;;;10.38;5.15;;;8.90;99.90;;;;;;5065699;28;20489;-80
2021/12/01 08:38:39;;;;;;;7.22;4.47;;;8.90;99.90;;;;;;5063371;28;20076;-80
2021/12/01 08:41:06;;;;;;;9.10;4.57;;;8.90;99.90;;;;;;5080459;28;20032;-80
2021/12/01 08:43:33;;;;;;;15.30;5.68;;;8.90;99.90;;;;;;5081467;28;20044;-79
2021/12/01 08:46:00;;;;;;;8.07;4.78;;;8.90;99.90;;;;;;5071180;28;20078;-80
2021/12/01 08:48:25;;;;;;;7.85;4.15;;;9.00;99.90;;;;;;5082925;28;20405;-80
2021/12/01 08:50:51;;;;;;;8.13;3.67;;;8.90;99.90;;;;;;5076757;28;20047;-80
2021/12/01 08:53:17;;;;;;;6.35;3.40;;;9.00;99.90;;;;;;5073899;28;20044;-80
2021/12/01 08:55:44;;;;;;;6.95;3.75;;;9.00;99.90;;;;;;5076847;28;20036;-80
2021/12/01 08:58:11;;;;;;;11.20;2.90;;;9.00;99.90;;;;;;5062096;28;20040;-80
2021/12/01 09:00:44;;;;;;;7.10;2.80;;;9.00;99.90;;;;;;5074448;28;20036;-80
2021/12/01 09:03:11;;;;;;;8.18;2.28;;;8.90;99.90;;;;;;5074773;28;20043;-80
2021/12/01 09:05:37;;;;;;;8.88;2.60;;;8.90;99.90;;;;;;5058803;28;20573;-80
2021/12/01 09:08:04;;;;;;;8.93;2.83;;;8.90;99.90;;;;;;5060207;28;21840;-81
2021/12/01 09:10:31;;;;;;;10.35;2.45;;;8.80;99.90;;;;;;5075023;28;20071;-81
2021/12/01 09:12:57;;;;;;;8.82;2.15;;;8.90;99.90;;;;;;5076979;28;20032;-81
2021/12/01 09:15:22;;;;;;;8.25;2.20;;;8.90;99.90;;;;;;5074840;28;20060;-80
2021/12/01 09:17:48;;;;;;;12.40;1.98;;;8.90;99.90;;;;;;5087049;28;20036;-80
2021/12/01 09:20:14;;;;;;;8.20;1.90;;;8.90;99.90;;;;;;5079769;28;20178;-80
2021/12/01 09:22:41;;;;;;;7.70;1.77;;;8.90;99.90;;;;;;5067160;28;20532;-81
2021/12/01 09:25:08;;;;;;;10.25;2.20;;;8.90;99.90;;;;;;5092729;28;20422;-81
2021/12/01 09:27:34;;;;;;;10.10;1.50;;;8.90;99.90;;;;;;5089100;28;20036;-80
2021/12/01 09:30:00;;;;;;;13.10;2.20;;;8.90;99.90;;;;;;5093816;28;20031;-80
2021/12/01 09:32:26;;;;;;;11.10;1.80;;;8.80;99.90;;;;;;5096091;28;20055;-80
2021/12/01 09:34:51;;;;;;;14.82;1.95;;;8.80;99.90;;;;;;5069940;28;20433;-80
2021/12/01 09:37:17;;;;;;;8.57;1.50;;;8.80;99.90;;;;;;5087862;28;20052;-80
2021/12/01 09:39:44;;;;;;;11.98;1.60;;;8.80;99.90;;;;;;5075301;28;20032;-80
2021/12/01 09:42:11;;;;;;;7.68;1.27;;;8.80;99.90;;;;;;5072719;28;20424;-80
2021/12/01 09:44:37;;;;;;;8.82;1.83;;;8.80;99.90;;;;;;5066144;28;20066;-80
2021/12/01 09:47:04;;;;;;;11.75;1.60;;;8.90;99.90;;;;;;5088748;28;20043;-80
2021/12/01 09:49:30;;;;;;;9.27;1.50;;;8.80;99.90;;;;;;5091425;28;20032;-80
2021/12/01 09:51:56;;;;;;;8.00;1.55;;;8.80;99.90;;;;;;5084466;28;20035;-80
2021/12/01 09:54:21;;;;;;;11.52;1.73;;;8.70;99.90;;;;;;5095356;28;21438;-80
2021/12/01 09:56:47;;;;;;;9.07;1.42;;;8.70;99.90;;;;;;5080195;28;20032;-80
2021/12/01 09:59:14;;;;;;;9.98;1.40;;;8.70;99.90;;;;;;5081261;28;20043;-80
2021/12/01 10:01:40;;;;;;;9.73;1.55;;;8.70;99.90;;;;;;5083188;28;20202;-80
2021/12/01 10:04:06;;;;;;;8.75;1.30;;;8.70;99.90;;;;;;5078875;28;20033;-80
2021/12/01 10:06:33;;;;;;;11.15;1.13;;;8.70;99.90;;;;;;5082311;28;20046;-80
2021/12/01 10:09:05;;;;;;;5.78;1.05;;;8.70;99.90;;;;;;5079290;28;20449;-79
2021/12/01 10:11:34;;;;;;;9.57;1.45;;;8.70;99.90;;;;;;5073570;28;20032;-80
2021/12/01 10:14:10;;;;;;;10.88;1.40;;;8.70;99.90;;;;;;5094068;28;20512;-80
2021/12/01 10:16:38;;;;;;;8.35;1.38;;;8.70;99.90;;;;;;5084721;28;20497;-80
2021/12/01 10:19:06;;;;;;;11.98;1.40;;;8.70;99.90;;;;;;5070108;28;20085;-80
2021/12/01 10:21:51;;;;;;;11.85;2.22;;;8.70;99.90;;;;;;5083467;28;20036;-79
2021/12/01 10:24:25;;;;;;;10.18;1.45;;;8.70;99.90;;;;;;5069893;28;20040;-80
2021/12/01 10:26:54;;;;;;;14.80;1.88;;;8.70;99.90;;;;;;5071624;28;20550;-80
2021/12/01 10:29:27;;;;;;;14.23;1.67;;;8.60;99.90;;;;;;5080468;28;20086;-80
2021/12/01 10:32:02;;;;;;;9.98;1.83;;;8.70;99.90;;;;;;5079258;28;20466;-81
2021/12/01 10:34:30;;;;;;;10.30;1.92;;;8.70;99.90;;;;;;5069435;28;20612;-80
2021/12/01 10:37:10;;;;;;;15.18;1.95;;;8.70;99.90;;;;;;5054189;28;20044;-81
2021/12/01 10:39:38;;;;;;;17.70;1.80;;;8.70;99.90;;;;;;5073511;28;20439;-81
2021/12/01 10:42:06;;;;;;;12.32;1.70;;;8.70;99.90;;;;;;5058815;28;20032;-81
2021/12/01 10:44:34;;;;;;;15.40;1.58;;;8.70;99.90;;;;;;5085746;28;20505;-81
2021/12/01 10:47:08;;;;;;;11.57;1.90;;;8.70;99.90;;;;;;5084844;28;20126;-81
2021/12/01 10:49:39;;;;;;;10.90;1.85;;;8.70;99.90;;;;;;5069822;28;20489;-80
2021/12/01 10:52:06;;;;;;;10.77;1.60;;;8.70;99.90;;;;;;5079945;28;20064;-80
2021/12/01 10:54:32;;;;;;;11.07;1.95;;;8.70;99.90;;;;;;5063564;28;20099;-81
2021/12/01 10:57:22;;;;;;;9.77;1.42;;;8.70;99.90;;;;;;5067568;28;20513;-82
2021/12/01 10:59:50;;;;;;;11.50;1.60;;;8.70;99.90;;;;;;5081901;28;20039;-81
2021/12/01 11:02:17;;;;;;;9.40;1.70;;;8.70;99.90;;;;;;5081456;28;20075;-80
2021/12/01 11:04:44;;;;;;;18.00;3.35;;;8.70;99.90;;;;;;5096587;27;20087;-80
2021/12/01 11:07:31;;;;;;;9.85;1.73;;;8.70;99.90;;;;;;5075033;28;20042;-80
2021/12/01 11:10:10;;;;;;;32.80;17.02;;;8.70;99.90;;;;;;5082057;28;20033;-80
2021/12/01 11:12:36;;;;;;;13.38;2.08;;;8.70;99.90;;;;;;5078639;28;20044;-81
2021/12/01 11:15:20;;;;;;;9.05;2.40;;;8.80;99.90;;;;;;5062689;28;20040;-80
2021/12/01 11:17:45;;;;;;;12.13;3.08;;;8.70;99.90;;;;;;5066635;28;20148;-81
2021/12/01 11:20:11;;;;;;;11.85;2.55;;;8.70;99.90;;;;;;5070530;28;20512;-81
2021/12/01 11:22:37;;;;;;;14.48;2.65;;;8.70;99.90;;;;;;5087884;28;20032;-80
2021/12/01 11:25:21;;;;;;;12.55;3.08;;;8.60;99.90;;;;;;5108733;28;20134;-80
2021/12/01 11:27:47;;;;;;;13.98;3.42;;;8.70;99.90;;;;;;5065097;28;20036;-80
2021/12/01 11:30:13;;;;;;;12.52;2.60;;;8.70;99.90;;;;;;5063302;28;20662;-80
2021/12/01 11:32:39;;;;;;;10.48;2.05;;;8.80;99.90;;;;;;5079056;28;20560;-80
2021/12/01 11:35:05;;;;;;;14.10;2.55;;;8.80;99.90;;;;;;5066216;28;20126;-81
2021/12/01 11:37:31;;;;;;;13.80;2.67;;;8.80;99.90;;;;;;5087319;28;20480;-81
2021/12/01 11:39:58;;;;;;;16.95;2.25;;;8.80;99.90;;;;;;5067894;28;20437;-81
2021/12/01 11:42:24;;;;;;;25.42;3.28;;;8.80;99.90;;;;;;5067427;28;20043;-81
2021/12/01 11:44:52;;;;;;;24.85;11.05;;;8.80;99.90;;;;;;5085822;28;20127;-80
2021/12/01 11:47:18;;;;;;;22.05;5.90;;;8.80;99.90;;;;;;5084408;28;20052;-80
2021/12/01 11:49:44;;;;;;;16.98;2.47;;;8.80;99.90;;;;;;5084864;28;20381;-81
2021/12/01 11:52:10;;;;;;;20.77;2.85;;;8.80;99.90;;;;;;5086311;28;20082;-79
2021/12/01 11:54:46;;;;;;;22.58;3.33;;;8.80;99.90;;;;;;5084880;28;20158;-80
2021/12/01 11:57:12;;;;;;;17.35;2.75;;;8.70;99.90;;;;;;5077015;28;20040;-80
2021/12/01 11:59:47;;;;;;;11.70;2.17;;;8.70;99.90;;;;;;5068020;28;20035;-80
2021/12/01 12:02:15;;;;;;;12.23;2.78;;;8.70;99.90;;;;;;5060869;28;20085;-80
2021/12/01 12:04:46;;;;;;;15.20;3.78;;;8.70;99.90;;;;;;5095516;28;20493;-81
2021/12/01 12:07:18;;;;;;;13.70;2.20;;;8.70;99.90;;;;;;5065139;28;20120;-80
2021/12/01 12:10:08;;;;;;;11.10;2.17;;;8.70;99.90;;;;;;5063895;28;20127;-81
2021/12/01 12:12:48;;;;;;;12.75;2.30;;;8.60;99.90;;;;;;5089794;28;20051;-80
2021/12/01 12:15:37;;;;;;;14.30;2.00;;;8.60;99.90;;;;;;5085676;28;20513;-81
2021/12/01 12:18:04;;;;;;;12.68;2.63;;;8.60;99.90;;;;;;5088771;28;20036;-80
2021/12/01 12:20:34;;;;;;;23.90;3.03;;;8.60;99.90;;;;;;5089708;28;20490;-81
2021/12/01 12:23:07;;;;;;;22.35;2.97;;;8.60;99.90;;;;;;5086788;28;20101;-80
2021/12/01 12:25:37;;;;;;;20.17;2.83;;;8.60;99.90;;;;;;5089352;28;20027;-81
2021/12/01 12:28:22;;;;;;;24.20;3.45;;;8.60;99.90;;;;;;5098944;28;20072;-81
2021/12/01 12:30:47;;;;;;;16.85;2.72;;;8.60;99.90;;;;;;5088935;28;20047;-81
2021/12/01 12:33:26;;;;;;;20.80;3.15;;;8.60;99.90;;;;;;5085453;28;20044;-81
2021/12/01 12:36:02;;;;;;;13.25;3.33;;;8.60;99.90;;;;;;5082068;28;20044;-81
2021/12/01 12:38:28;;;;;;;;;;;8.70;99.90;;;;;;5078030;28;20062;-81
2021/12/01 12:41:10;;;;;;;13.35;2.63;;;8.60;99.90;;;;;;5089587;28;20276;-82
2021/12/01 12:43:38;;;;;;;16.73;2.45;;;8.60;99.90;;;;;;5070696;28;20043;-81
2021/12/01 12:46:08;;;;;;;17.90;2.80;;;8.60;99.90;;;;;;5096157;28;20040;-81
2021/12/01 12:48:40;;;;;;;22.42;3.17;;;8.60;99.90;;;;;;5090709;28;20040;-81
2021/12/01 12:51:26;;;;;;;16.52;3.40;;;8.50;99.90;;;;;;5078526;28;20354;-81
2021/12/01 12:54:07;;;;;;;13.88;2.45;;;8.50;99.90;;;;;;5075079;28;20040;-81
2021/12/01 12:56:40;;;;;;;17.75;2.40;;;8.50;99.90;;;;;;5080823;28;20043;-82